Dana, Iowa
Current Conditions -  °F | °C
As of 3:35 PM on Saturday 22 Nov 2014 (Local Time) from KPRO Reporting Station
Clear Clear  
Wind Chill: 54°   Ceiling: Unl
Heat Index: 54°   Visibility: 10mi
Dew Point: 44°   Wind: 12mph
Humidity: 70%   Direction: 190°S
Pressure: 29.7"   Gusts: NA
Location:  42.11°N, 94.24°W
Report Text: KPRO 222135Z AUTO 19010KT 10SM CLR 12/07 A2970 RMK AO2 T01230069
Loading
Personal Weather Stations






























Interactive Weather Map New forecast layout! Learn more

10-Day Weather Forecast

Advertisements
Track Severe Weather on mobile